createdAt,value
2022-09-17T00:00:54.989Z,101510.78
2022-09-17T00:03:23.182Z,101513.19
2022-09-17T00:05:49.675Z,101505.91
2022-09-17T00:08:16.293Z,101505.09
2022-09-17T00:10:44.863Z,101514.81
2022-09-17T00:13:12.177Z,101525.88
2022-09-17T00:15:46.629Z,101522.66
2022-09-17T00:18:15.008Z,101528.75
2022-09-17T00:20:43.602Z,101530.53
2022-09-17T00:23:11.339Z,101518.22
2022-09-17T00:25:39.181Z,101535.47
2022-09-17T00:28:05.766Z,101543.75
2022-09-17T00:30:32.427Z,101541.44
2022-09-17T00:32:59.376Z,101534.47
2022-09-17T00:35:26.712Z,101545.22
2022-09-17T00:37:53.387Z,101559.25
2022-09-17T00:40:21.185Z,101554.69
2022-09-17T00:42:47.884Z,101551.69
2022-09-17T00:45:14.591Z,101540.63
2022-09-17T00:48:00.802Z,101543.66
2022-09-17T00:50:27.280Z,101549.59
2022-09-17T00:52:59.374Z,101537.28
2022-09-17T00:55:36.332Z,101533.66
2022-09-17T00:58:05.760Z,101536.34
2022-09-17T01:00:32.628Z,101533.50
2022-09-17T01:03:00.281Z,101512.22
2022-09-17T01:06:02.699Z,101524.47
2022-09-17T01:08:39.827Z,101514.72
2022-09-17T01:11:20.105Z,101506.94
2022-09-17T01:14:08.524Z,101515.06
2022-09-17T01:16:55.680Z,101530.47
2022-09-17T01:20:07.139Z,101524.19
2022-09-17T01:22:54.258Z,101540.34
2022-09-17T01:25:45.510Z,101528.97
2022-09-17T01:28:41.111Z,101523.44
2022-09-17T01:31:43.276Z,101534.69
2022-09-17T01:34:36.621Z,101529.28
2022-09-17T01:37:16.918Z,101526.63
2022-09-17T01:39:52.945Z,101511.34
2022-09-17T01:42:38.613Z,101502.44
2022-09-17T01:45:12.587Z,101502.16
2022-09-17T01:47:45.242Z,101495.97
2022-09-17T01:50:18.016Z,101509.50
2022-09-17T01:52:48.135Z,101494.75
2022-09-17T01:55:17.524Z,101482.88
2022-09-17T01:58:02.922Z,101490.06
2022-09-17T02:00:30.297Z,101507.41
2022-09-17T02:03:35.458Z,101507.28
2022-09-17T02:06:13.072Z,101500.88
2022-09-17T02:08:47.860Z,101490.97
2022-09-17T02:11:17.188Z,101503.94
2022-09-17T02:14:03.921Z,101522.72
2022-09-17T02:16:33.437Z,101516.63
2022-09-17T02:19:23.380Z,101529.94
2022-09-17T02:22:27.992Z,101527.97
2022-09-17T02:25:11.475Z,101536.19
2022-09-17T02:27:46.079Z,101538.00
2022-09-17T02:30:13.940Z,101544.78
2022-09-17T02:32:40.596Z,101540.06
2022-09-17T02:35:07.660Z,101542.91
2022-09-17T02:37:34.458Z,101533.66
2022-09-17T02:40:01.504Z,101549.63
2022-09-17T02:42:53.837Z,101549.88
2022-09-17T02:45:40.902Z,101546.22
2022-09-17T02:48:25.325Z,101547.72
2022-09-17T02:51:03.685Z,101551.75
2022-09-17T02:53:48.274Z,101561.81
2022-09-17T02:56:30.345Z,101558.84
2022-09-17T02:59:21.701Z,101557.53
2022-09-17T03:01:59.628Z,101552.72
2022-09-17T03:04:29.589Z,101555.38
2022-09-17T03:06:56.930Z,101553.59
2022-09-17T03:09:23.441Z,101569.06
2022-09-17T03:11:49.962Z,101561.34
2022-09-17T03:14:16.490Z,101560.59
2022-09-17T03:16:43.060Z,101558.91
2022-09-17T03:19:09.626Z,101563.19
2022-09-17T03:21:36.585Z,101567.28
2022-09-17T03:24:03.148Z,101566.13
2022-09-17T03:26:29.722Z,101553.03
2022-09-17T03:28:56.368Z,101562.00
2022-09-17T03:31:22.880Z,101546.44
2022-09-17T03:33:50.235Z,101555.34
2022-09-17T03:36:16.725Z,101568.22
2022-09-17T03:38:43.200Z,101553.94
2022-09-17T03:41:09.753Z,101555.13
2022-09-17T03:43:36.341Z,101557.47
2022-09-17T03:46:03.176Z,101541.09
2022-09-17T03:48:30.344Z,101562.31
2022-09-17T03:50:57.132Z,101557.22
2022-09-17T03:53:23.933Z,101563.31
2022-09-17T03:55:50.532Z,101560.53
2022-09-17T03:58:17.174Z,101557.97
2022-09-17T04:00:44.088Z,101564.13
2022-09-17T04:03:10.660Z,101548.09
2022-09-17T04:05:37.195Z,101553.09
2022-09-17T04:08:03.693Z,101553.97
2022-09-17T04:10:30.177Z,101554.13
2022-09-17T04:12:56.656Z,101549.44
2022-09-17T04:15:23.157Z,101558.97
2022-09-17T04:17:49.709Z,101552.09
2022-09-17T04:20:16.242Z,101549.78
2022-09-17T04:22:42.782Z,101547.38
2022-09-17T04:25:10.051Z,101554.03
2022-09-17T04:27:36.559Z,101559.78
2022-09-17T04:30:03.466Z,101559.94
2022-09-17T04:32:29.972Z,101558.84
2022-09-17T04:34:56.481Z,101556.72
2022-09-17T04:37:23.663Z,101563.25
2022-09-17T04:39:50.180Z,101562.53
2022-09-17T04:42:16.721Z,101554.78
2022-09-17T04:44:43.736Z,101544.72
2022-09-17T04:47:10.317Z,101530.72
2022-09-17T04:49:36.847Z,101501.91
2022-09-17T04:52:03.471Z,101513.16
2022-09-17T04:54:29.971Z,101516.63
2022-09-17T04:56:56.461Z,101518.75
2022-09-17T04:59:23.108Z,101522.31
2022-09-17T05:01:49.865Z,101518.47
2022-09-17T05:04:16.478Z,101522.31
2022-09-17T05:06:43.023Z,101521.50
2022-09-17T05:09:09.819Z,101530.00
2022-09-17T05:11:36.310Z,101518.34
2022-09-17T05:14:02.910Z,101516.03
2022-09-17T05:16:29.631Z,101526.16
2022-09-17T05:18:57.952Z,101515.44
2022-09-17T05:21:24.885Z,101513.34
2022-09-17T05:23:51.411Z,101522.50
2022-09-17T05:26:18.139Z,101525.22
2022-09-17T05:28:44.671Z,101524.19
2022-09-17T05:31:11.307Z,101521.84
2022-09-17T05:33:37.972Z,101521.34
2022-09-17T05:36:04.943Z,101534.81
2022-09-17T05:38:31.559Z,101526.38
2022-09-17T05:40:58.054Z,101524.47
2022-09-17T05:43:24.581Z,101538.84
2022-09-17T05:45:51.765Z,101540.81
2022-09-17T05:48:18.273Z,101529.63
2022-09-17T05:50:44.971Z,101536.06
2022-09-17T05:53:13.113Z,101529.34
2022-09-17T05:55:40.503Z,101518.72
2022-09-17T05:58:18.617Z,101523.16
2022-09-17T06:00:47.304Z,101527.53
2022-09-17T06:03:15.789Z,101516.09
2022-09-17T06:05:42.925Z,101516.22
2022-09-17T06:08:09.991Z,101514.56
2022-09-17T06:10:37.672Z,101517.88
2022-09-17T06:13:04.720Z,101524.50
2022-09-17T06:15:31.296Z,101538.97
2022-09-17T06:17:57.847Z,101571.00
2022-09-17T06:20:24.383Z,101575.00
2022-09-17T06:22:56.685Z,101575.91
2022-09-17T06:25:23.812Z,101586.97
2022-09-17T06:27:50.536Z,101586.56
2022-09-17T06:30:17.336Z,101592.50
2022-09-17T06:32:43.877Z,101598.63
2022-09-17T06:35:10.661Z,101602.13
2022-09-17T06:37:40.285Z,101615.28
2022-09-17T06:40:08.529Z,101608.22
2022-09-17T06:42:35.121Z,101597.09
2022-09-17T06:45:06.976Z,101608.22
2022-09-17T06:47:35.199Z,101613.47
2022-09-17T06:50:01.890Z,101608.66
2022-09-17T06:52:28.795Z,101595.25
2022-09-17T06:54:55.537Z,101605.53
2022-09-17T06:57:22.075Z,101596.78
2022-09-17T06:59:50.052Z,101596.22
2022-09-17T07:02:16.621Z,101590.47
2022-09-17T07:04:43.198Z,101586.16
2022-09-17T07:07:10.507Z,101588.72
2022-09-17T07:09:37.076Z,101597.75
2022-09-17T07:12:08.046Z,101592.81
2022-09-17T07:14:34.673Z,101576.63
2022-09-17T07:17:01.210Z,101590.09
2022-09-17T07:19:27.757Z,101577.47
2022-09-17T07:21:54.522Z,101552.81
2022-09-17T07:24:21.015Z,101554.88
2022-09-17T07:26:47.677Z,101556.38
2022-09-17T07:29:14.205Z,101551.41
2022-09-17T07:31:40.810Z,101559.59
2022-09-17T07:34:07.456Z,101560.13
2022-09-17T07:36:33.974Z,101560.19
2022-09-17T07:39:00.490Z,101558.69
2022-09-17T07:41:27.107Z,101561.44
2022-09-17T07:43:56.766Z,101559.09
2022-09-17T07:46:23.501Z,101565.78
2022-09-17T07:48:51.374Z,101567.69
2022-09-17T07:51:19.642Z,101569.09
2022-09-17T07:53:46.809Z,101579.66
2022-09-17T07:56:13.597Z,101572.38
2022-09-17T07:58:40.144Z,101577.00
2022-09-17T08:01:08.632Z,101578.09
2022-09-17T08:03:36.326Z,101564.31
2022-09-17T08:06:05.353Z,101573.13
2022-09-17T08:08:35.966Z,101557.78
2022-09-17T08:11:06.709Z,101560.25
2022-09-17T08:13:33.313Z,101561.97
2022-09-17T08:16:05.667Z,101552.88
2022-09-17T08:18:32.899Z,101551.44
2022-09-17T08:21:00.909Z,101554.31
2022-09-17T08:23:28.849Z,101544.00
2022-09-17T08:26:00.424Z,101548.00
2022-09-17T08:28:28.984Z,101541.41
2022-09-17T08:31:01.007Z,101542.44
2022-09-17T08:33:30.373Z,101547.31
2022-09-17T08:35:59.706Z,101545.41
2022-09-17T08:38:37.640Z,101534.41
2022-09-17T08:41:10.974Z,101549.72
2022-09-17T08:43:43.330Z,101563.78
2022-09-17T08:46:11.379Z,101584.53
2022-09-17T08:48:43.288Z,101609.06
2022-09-17T08:51:32.431Z,101618.31
2022-09-17T08:54:36.683Z,101629.69
2022-09-17T08:57:24.511Z,101646.03
2022-09-17T08:59:57.577Z,101641.00
2022-09-17T09:02:35.290Z,101633.63
2022-09-17T09:05:21.236Z,101633.09
2022-09-17T09:07:54.063Z,101623.78
2022-09-17T09:10:26.609Z,101600.78
2022-09-17T09:12:55.736Z,101592.78
2022-09-17T09:15:44.704Z,101601.09
2022-09-17T09:18:22.873Z,101603.44
2022-09-17T09:21:04.140Z,101614.41
2022-09-17T09:24:07.698Z,101623.09
2022-09-17T09:27:03.264Z,101638.97
2022-09-17T09:29:54.198Z,101658.88
2022-09-17T09:32:29.831Z,101664.78
2022-09-17T09:34:58.079Z,101678.00
2022-09-17T09:37:30.267Z,101685.25
2022-09-17T09:40:05.217Z,101684.63
2022-09-17T09:42:39.413Z,101690.72
2022-09-17T09:45:47.669Z,101693.41
2022-09-17T09:48:25.590Z,101686.69
2022-09-17T09:51:18.809Z,101667.59
2022-09-17T09:54:03.951Z,101656.31
2022-09-17T09:56:48.215Z,101661.22
2022-09-17T09:59:14.973Z,101655.53
2022-09-17T10:01:43.141Z,101666.13
2022-09-17T10:04:22.362Z,101667.56
2022-09-17T10:06:52.491Z,101673.31
2022-09-17T10:09:22.211Z,101703.97
2022-09-17T10:12:08.930Z,101707.78
2022-09-17T10:14:40.489Z,101720.69
2022-09-17T10:17:20.640Z,101723.69
2022-09-17T10:20:00.116Z,101723.69
2022-09-17T10:22:33.168Z,101712.44
2022-09-17T10:25:01.730Z,101699.56
2022-09-17T10:27:29.265Z,101702.59
2022-09-17T10:30:15.216Z,101697.09
2022-09-17T10:32:41.909Z,101702.28
2022-09-17T10:35:14.518Z,101700.50
2022-09-17T10:37:52.198Z,101700.63
2022-09-17T10:40:18.947Z,101701.97
2022-09-17T10:42:50.703Z,101692.66
2022-09-17T10:45:31.521Z,101699.13
2022-09-17T10:48:00.172Z,101698.75
2022-09-17T10:50:30.424Z,101696.53
2022-09-17T10:53:01.522Z,101684.47
2022-09-17T10:55:36.255Z,101666.59
2022-09-17T10:58:03.836Z,101668.81
2022-09-17T11:00:43.956Z,101661.00
2022-09-17T11:03:22.793Z,101657.25
2022-09-17T11:05:52.357Z,101658.31
2022-09-17T11:08:32.896Z,101642.91
2022-09-17T11:11:11.971Z,101644.31
2022-09-17T11:14:00.211Z,101636.75
2022-09-17T11:16:37.137Z,101620.66
2022-09-17T11:19:16.053Z,101625.22
2022-09-17T11:22:04.934Z,101614.19
2022-09-17T11:24:56.295Z,101611.91
2022-09-17T11:27:40.437Z,101606.47
2022-09-17T11:30:16.838Z,101598.25
2022-09-17T11:33:22.409Z,101590.44
2022-09-17T11:36:05.340Z,101580.44
2022-09-17T11:38:47.672Z,101583.84
2022-09-17T11:41:27.508Z,101573.53
2022-09-17T11:44:02.899Z,101568.03
2022-09-17T11:46:39.001Z,101564.28
2022-09-17T11:49:33.750Z,101562.31
2022-09-17T11:52:24.769Z,101556.00
2022-09-17T11:55:09.853Z,101564.44
2022-09-17T11:57:41.482Z,101560.47
2022-09-17T12:00:20.134Z,101557.19
2022-09-17T12:02:58.882Z,101543.66
2022-09-17T12:05:31.807Z,101530.59
2022-09-17T12:08:27.945Z,101513.94
2022-09-17T12:11:06.081Z,101510.31
2022-09-17T12:13:45.573Z,101511.16
2022-09-17T12:16:19.269Z,101528.97
2022-09-17T12:18:51.589Z,101547.44
2022-09-17T12:21:37.696Z,101554.19
2022-09-17T12:24:23.837Z,101566.75
2022-09-17T12:27:06.447Z,101560.91
2022-09-17T12:29:41.375Z,101549.28
2022-09-17T12:32:21.662Z,101548.81
2022-09-17T12:34:51.061Z,101539.25
2022-09-17T12:37:37.754Z,101535.84
2022-09-17T12:40:31.605Z,101544.44
2022-09-17T12:43:36.675Z,101545.25
2022-09-17T12:46:30.358Z,101542.09
2022-09-17T12:49:19.598Z,101544.47
2022-09-17T12:52:00.075Z,101539.78
2022-09-17T12:54:54.697Z,101543.66
2022-09-17T12:57:30.341Z,101557.16
2022-09-17T13:00:06.787Z,101561.25
2022-09-17T13:03:12.678Z,101591.41
2022-09-17T13:05:49.606Z,101598.97
2022-09-17T13:09:05.421Z,101609.41
2022-09-17T13:11:41.623Z,101634.22
2022-09-17T13:14:11.101Z,101629.53
2022-09-17T13:16:43.809Z,101632.06
2022-09-17T13:19:44.472Z,101619.53
2022-09-17T13:22:18.647Z,101615.03
2022-09-17T13:24:49.488Z,101609.56
2022-09-17T13:27:23.065Z,101591.78
2022-09-17T13:29:55.407Z,101568.22
2022-09-17T13:32:36.987Z,101566.59
2022-09-17T13:35:18.163Z,101562.06
2022-09-17T13:37:55.403Z,101567.75
2022-09-17T13:40:26.400Z,101565.53
2022-09-17T13:42:58.044Z,101571.19
2022-09-17T13:45:26.557Z,101567.47
2022-09-17T13:47:55.860Z,101560.47
2022-09-17T13:50:36.930Z,101552.63
2022-09-17T13:53:15.436Z,101539.03
2022-09-17T13:55:54.726Z,101545.03
2022-09-17T13:58:21.187Z,101538.34
2022-09-17T14:00:59.862Z,101544.25
2022-09-17T14:03:37.206Z,101558.28
2022-09-17T14:06:07.434Z,101563.53
2022-09-17T14:08:58.282Z,101561.94
2022-09-17T14:11:28.609Z,101567.25
2022-09-17T14:13:56.852Z,101562.00
2022-09-17T14:16:29.270Z,101557.56
2022-09-17T14:19:03.202Z,101557.97
2022-09-17T14:21:34.631Z,101559.63
2022-09-17T14:24:20.065Z,101564.97
2022-09-17T14:27:07.988Z,101569.81
2022-09-17T14:30:05.317Z,101572.38
2022-09-17T14:32:54.586Z,101561.44
2022-09-17T14:35:47.297Z,101571.19
2022-09-17T14:38:23.030Z,101546.94
2022-09-17T14:41:07.707Z,101557.59
2022-09-17T14:43:58.486Z,101553.25
2022-09-17T14:46:29.783Z,101554.50
2022-09-17T14:49:23.505Z,101560.56
2022-09-17T14:51:54.855Z,101558.88
2022-09-17T14:54:35.993Z,101558.06
2022-09-17T14:57:23.994Z,101556.78
2022-09-17T14:59:52.664Z,101554.34
2022-09-17T15:02:27.248Z,101556.81
2022-09-17T15:04:54.054Z,101560.50
2022-09-17T15:07:22.818Z,101561.69
2022-09-17T15:09:55.260Z,101554.94
2022-09-17T15:12:29.369Z,101547.75
2022-09-17T15:14:57.494Z,101543.03
2022-09-17T15:17:26.151Z,101533.47
2022-09-17T15:19:56.758Z,101526.66
2022-09-17T15:22:37.884Z,101522.31
2022-09-17T15:25:08.316Z,101531.88
2022-09-17T15:27:40.796Z,101538.25
2022-09-17T15:30:10.128Z,101545.34
2022-09-17T15:32:38.633Z,101539.81
2022-09-17T15:35:14.537Z,101546.47
2022-09-17T15:38:21.752Z,101550.09
2022-09-17T15:40:44.780Z,101547.78
2022-09-17T15:43:23.239Z,101551.75
2022-09-17T15:45:50.096Z,101552.97
2022-09-17T15:48:37.548Z,101561.25
2022-09-17T15:51:09.680Z,101555.78
2022-09-17T15:53:36.869Z,101559.63
2022-09-17T15:56:07.546Z,101566.38
2022-09-17T15:58:43.119Z,101568.78
2022-09-17T16:01:18.887Z,101562.00
2022-09-17T16:03:45.384Z,101564.94
2022-09-17T16:06:18.099Z,101572.38
2022-09-17T16:08:49.539Z,101590.41
2022-09-17T16:11:24.206Z,101597.63
2022-09-17T16:13:52.371Z,101602.44
2022-09-17T16:16:38.043Z,101611.53
2022-09-17T16:19:06.684Z,101623.78
2022-09-17T16:21:33.232Z,101616.59
2022-09-17T16:23:59.902Z,101618.06
2022-09-17T16:26:32.427Z,101611.78
2022-09-17T16:29:05.884Z,101599.66
2022-09-17T16:31:33.504Z,101602.22
2022-09-17T16:34:00.735Z,101604.66
2022-09-17T16:36:27.558Z,101622.94
2022-09-17T16:38:54.088Z,101631.06
2022-09-17T16:41:20.626Z,101647.88
2022-09-17T16:43:47.134Z,101652.59
2022-09-17T16:46:13.725Z,101674.84
2022-09-17T16:48:41.277Z,101670.66
2022-09-17T16:51:09.518Z,101685.44
2022-09-17T16:53:36.260Z,101691.25
2022-09-17T16:56:09.712Z,101679.91
2022-09-17T16:58:36.772Z,101676.81
2022-09-17T17:01:11.758Z,101664.63
2022-09-17T17:03:38.485Z,101668.88
2022-09-17T17:06:05.605Z,101671.00
2022-09-17T17:08:33.114Z,101675.97
2022-09-17T17:11:01.011Z,101672.78
2022-09-17T17:13:27.910Z,101687.13
2022-09-17T17:15:55.090Z,101688.22
2022-09-17T17:18:22.731Z,101681.53
2022-09-17T17:20:49.360Z,101673.63
2022-09-17T17:23:16.551Z,101684.72
2022-09-17T17:25:43.183Z,101670.72
2022-09-17T17:28:10.127Z,101674.00
2022-09-17T17:30:37.540Z,101682.66
2022-09-17T17:33:04.272Z,101679.44
2022-09-17T17:35:31.033Z,101690.94
2022-09-17T17:37:57.600Z,101689.06
2022-09-17T17:40:24.292Z,101717.53
2022-09-17T17:42:54.554Z,101721.09
2022-09-17T17:45:21.299Z,101721.97
2022-09-17T17:47:47.839Z,101729.69
2022-09-17T17:50:15.841Z,101729.75
2022-09-17T17:52:47.787Z,101744.94
2022-09-17T17:55:15.879Z,101747.69
2022-09-17T17:57:42.447Z,101746.44
2022-09-17T18:00:11.013Z,101746.63
2022-09-17T18:02:37.665Z,101749.88
2022-09-17T18:05:04.716Z,101756.97
2022-09-17T18:07:31.521Z,101757.53
2022-09-17T18:09:58.158Z,101758.69
2022-09-17T18:12:26.985Z,101775.69
2022-09-17T18:14:53.813Z,101759.88
2022-09-17T18:17:20.353Z,101766.88
2022-09-17T18:19:46.897Z,101759.72
2022-09-17T18:22:13.476Z,101771.03
2022-09-17T18:24:40.010Z,101765.41
2022-09-17T18:27:06.514Z,101766.06
2022-09-17T18:29:33.027Z,101760.69
2022-09-17T18:31:59.601Z,101763.81
2022-09-17T18:34:26.246Z,101767.75
2022-09-17T18:36:53.102Z,101768.91
2022-09-17T18:39:56.937Z,101772.63
2022-09-17T18:42:08.136Z,101771.69
2022-09-17T18:44:34.975Z,101777.03
2022-09-17T18:47:01.915Z,101786.06
2022-09-17T18:49:28.836Z,101790.06
2022-09-17T18:51:55.437Z,101791.53
2022-09-17T18:54:21.949Z,101786.53
2022-09-17T18:56:48.528Z,101791.13
2022-09-17T18:59:15.146Z,101796.31
2022-09-17T19:01:41.747Z,101791.84
2022-09-17T19:04:08.424Z,101766.69
2022-09-17T19:06:35.576Z,101780.69
2022-09-17T19:09:03.981Z,101758.78
2022-09-17T19:11:30.708Z,101774.56
2022-09-17T19:13:57.860Z,101774.50
2022-09-17T19:16:24.515Z,101767.78
2022-09-17T19:18:51.445Z,101766.25
2022-09-17T19:21:20.548Z,101771.97
2022-09-17T19:23:49.917Z,101789.81
2022-09-17T19:26:19.461Z,101781.00
2022-09-17T19:28:46.209Z,101773.84
2022-09-17T19:31:15.962Z,101790.06
2022-09-17T19:33:43.463Z,101800.16
2022-09-17T19:36:15.451Z,101789.34
2022-09-17T19:38:42.234Z,101813.41
2022-09-17T19:41:17.535Z,101808.09
2022-09-17T19:43:47.957Z,101805.34
2022-09-17T19:46:17.992Z,101818.19
2022-09-17T19:48:46.655Z,101809.63
2022-09-17T19:51:13.984Z,101822.13
2022-09-17T19:53:40.737Z,101814.72
2022-09-17T19:56:10.834Z,101815.13
2022-09-17T19:58:37.370Z,101807.88
2022-09-17T20:01:03.954Z,101798.25
2022-09-17T20:03:31.006Z,101798.63
2022-09-17T20:06:05.448Z,101799.50
2022-09-17T20:08:32.688Z,101799.69
2022-09-17T20:11:10.331Z,101791.75
2022-09-17T20:13:37.739Z,101791.75
2022-09-17T20:16:10.660Z,101793.66
2022-09-17T20:18:37.450Z,101793.81
2022-09-17T20:21:29.920Z,101792.47
2022-09-17T20:23:57.259Z,101776.94
2022-09-17T20:26:24.277Z,101794.16
2022-09-17T20:28:51.783Z,101797.56
2022-09-17T20:31:21.236Z,101796.84
2022-09-17T20:33:51.351Z,101786.31
2022-09-17T20:36:19.388Z,101795.19
2022-09-17T20:41:34.334Z,101795.56
2022-09-17T20:44:01.251Z,101792.25
2022-09-17T20:46:29.597Z,101794.47
2022-09-17T20:48:57.686Z,101801.34
2022-09-17T20:51:29.358Z,101792.63
2022-09-17T20:54:01.008Z,101802.78
2022-09-17T20:56:31.360Z,101802.34
2022-09-17T20:59:09.409Z,101801.34
2022-09-17T21:01:37.555Z,101813.31
2022-09-17T21:04:06.992Z,101808.69
2022-09-17T21:06:36.236Z,101820.38
2022-09-17T21:09:03.793Z,101821.19
2022-09-17T21:11:31.443Z,101808.94
2022-09-17T21:14:00.309Z,101811.06
2022-09-17T21:16:27.521Z,101797.78
2022-09-17T21:19:02.009Z,101808.28
2022-09-17T21:21:29.102Z,101806.63
2022-09-17T21:24:00.332Z,101799.38
2022-09-17T21:26:27.648Z,101806.00
2022-09-17T21:28:56.230Z,101815.72
2022-09-17T21:31:28.487Z,101817.97
2022-09-17T21:34:01.185Z,101817.31
2022-09-17T21:36:29.765Z,101817.53
2022-09-17T21:38:58.778Z,101816.19
2022-09-17T21:41:26.476Z,101816.00
2022-09-17T21:43:53.773Z,101822.78
2022-09-17T21:46:26.075Z,101829.56
2022-09-17T21:48:56.037Z,101823.78
2022-09-17T21:51:34.011Z,101822.22
2022-09-17T21:54:06.591Z,101825.19
2022-09-17T21:56:34.365Z,101825.00
2022-09-17T21:59:03.363Z,101826.53
2022-09-17T22:01:32.237Z,101820.72
2022-09-17T22:04:00.334Z,101816.28
2022-09-17T22:06:30.468Z,101802.25
2022-09-17T22:08:58.691Z,101808.50
2022-09-17T22:11:29.512Z,101806.88
2022-09-17T22:13:58.834Z,101804.91
2022-09-17T22:16:28.358Z,101808.63
2022-09-17T22:18:55.030Z,101800.16
2022-09-17T22:21:25.390Z,101811.22
2022-09-17T22:23:53.875Z,101801.66
2022-09-17T22:26:22.867Z,101819.25
2022-09-17T22:28:50.344Z,101814.13
2022-09-17T22:31:17.798Z,101807.25
2022-09-17T22:33:47.305Z,101801.59
2022-09-17T22:36:15.612Z,101813.41
2022-09-17T22:38:45.628Z,101811.97
2022-09-17T22:41:14.908Z,101802.78
2022-09-17T22:43:41.791Z,101800.75
2022-09-17T22:46:19.767Z,101797.09
2022-09-17T22:48:46.495Z,101798.25
2022-09-17T22:51:14.082Z,101795.91
2022-09-17T22:53:41.610Z,101790.44
2022-09-17T22:56:11.379Z,101784.97
2022-09-17T22:58:38.022Z,101782.06
2022-09-17T23:01:11.327Z,101781.94
2022-09-17T23:03:38.774Z,101777.03
2022-09-17T23:06:08.360Z,101768.94
2022-09-17T23:08:35.894Z,101768.06
2022-09-17T23:11:03.203Z,101773.22
2022-09-17T23:13:30.273Z,101774.03
2022-09-17T23:16:03.605Z,101770.97
2022-09-17T23:18:31.158Z,101780.81
2022-09-17T23:21:03.125Z,101777.25
2022-09-17T23:23:29.743Z,101778.84
2022-09-17T23:26:03.491Z,101784.38
2022-09-17T23:28:30.072Z,101783.06
2022-09-17T23:30:56.593Z,101774.31
2022-09-17T23:33:23.163Z,101774.59
2022-09-17T23:35:49.675Z,101773.72
2022-09-17T23:38:16.255Z,101777.22
2022-09-17T23:40:42.818Z,101773.34
2022-09-17T23:43:09.485Z,101773.00
2022-09-17T23:45:36.021Z,101772.34
2022-09-17T23:48:02.603Z,101781.91
2022-09-17T23:50:29.265Z,101766.28
2022-09-17T23:52:55.765Z,101776.78
2022-09-17T23:55:22.250Z,101775.66
2022-09-17T23:57:48.828Z,101760.81
